createdAt,value
2022-11-18T00:01:03.312Z,7.3
2022-11-18T00:03:07.239Z,7.2
2022-11-18T00:05:11.177Z,7.3
2022-11-18T00:09:22.077Z,7.2
2022-11-18T00:11:26.024Z,7.3
2022-11-18T00:15:33.916Z,7.2
2022-11-18T00:19:41.785Z,7.1
2022-11-18T00:23:52.687Z,7.1
2022-11-18T00:25:56.621Z,7.2
2022-11-18T00:27:00.113Z,7.2
2022-11-18T00:29:04.033Z,7.2
2022-11-18T00:31:07.950Z,7.2
2022-11-18T00:33:11.904Z,7.3
2022-11-18T00:35:18.858Z,7.3
2022-11-18T00:37:22.810Z,7.3
2022-11-18T00:39:26.729Z,7.3
2022-11-18T00:41:30.680Z,7.3
2022-11-18T00:43:34.640Z,7.3
2022-11-18T00:45:38.564Z,7.3
2022-11-18T00:47:42.495Z,7.3
2022-11-18T00:49:49.471Z,7.4
2022-11-18T00:51:53.453Z,7.4
2022-11-18T00:53:57.393Z,7.3
2022-11-18T00:56:01.331Z,7.3
2022-11-18T00:58:05.275Z,7.3
2022-11-18T01:00:09.234Z,7.4
2022-11-18T01:02:18.952Z,7.4
2022-11-18T01:04:20.179Z,7.2
2022-11-18T01:06:24.130Z,7.3
2022-11-18T01:08:28.051Z,7.2
2022-11-18T01:12:35.944Z,7.2
2022-11-18T01:14:39.884Z,7.3
2022-11-18T01:18:50.800Z,7.2
2022-11-18T01:20:54.743Z,7.3
2022-11-18T01:22:58.678Z,7.1
2022-11-18T01:26:06.110Z,7.2
2022-11-18T01:28:10.028Z,7.2
2022-11-18T01:30:13.989Z,7.1
2022-11-18T01:32:25.593Z,7.1
2022-11-18T01:34:24.897Z,7.2
2022-11-18T01:36:28.825Z,7.1
2022-11-18T01:40:36.700Z,7.1
2022-11-18T01:42:40.672Z,7.1
2022-11-18T01:44:44.593Z,7
2022-11-18T01:48:55.393Z,7
2022-11-18T01:50:59.328Z,7
2022-11-18T01:53:03.261Z,6.9
2022-11-18T01:55:07.190Z,6.8
2022-11-18T01:57:11.146Z,7
2022-11-18T01:59:15.422Z,7
2022-11-18T02:01:22.071Z,6.8
2022-11-18T02:03:25.943Z,6.8
2022-11-18T02:05:29.970Z,6.8
2022-11-18T02:07:34.006Z,7
2022-11-18T02:09:37.861Z,7
2022-11-18T02:11:41.861Z,7
2022-11-18T02:13:45.723Z,7
2022-11-18T02:16:26.232Z,7
2022-11-18T02:17:56.631Z,7
2022-11-18T02:20:00.569Z,7.1
2022-11-18T02:21:04.017Z,7.1
2022-11-18T02:23:07.971Z,7
2022-11-18T02:25:11.897Z,7.1
2022-11-18T02:27:15.851Z,7.1
2022-11-18T02:31:26.739Z,7.3
2022-11-18T02:33:30.688Z,7.2
2022-11-18T02:35:34.649Z,7.3
2022-11-18T02:37:38.588Z,7.2
2022-11-18T02:43:54.971Z,7.3
2022-11-18T02:45:58.912Z,7.3
2022-11-18T02:48:02.900Z,7.3
2022-11-18T02:50:06.834Z,7.3
2022-11-18T02:52:10.783Z,7.4
2022-11-18T02:54:14.730Z,7.5
2022-11-18T02:56:18.685Z,7.5
2022-11-18T02:58:25.703Z,7.4
2022-11-18T03:00:29.629Z,7.4
2022-11-18T03:02:33.589Z,7.5
2022-11-18T03:04:38.212Z,7.5
2022-11-18T03:06:42.165Z,7.5
2022-11-18T03:08:46.128Z,7.4
2022-11-18T03:10:50.109Z,7.5
2022-11-18T03:12:57.067Z,7.5
2022-11-18T03:15:01.020Z,7.5
2022-11-18T03:17:04.978Z,7.4
2022-11-18T03:19:29.505Z,7.5
2022-11-18T03:23:37.471Z,7.6
2022-11-18T03:27:48.435Z,7.6
2022-11-18T03:31:56.346Z,7.6
2022-11-18T03:34:00.314Z,7.8
2022-11-18T03:36:04.286Z,7.8
2022-11-18T03:38:08.233Z,7.8
2022-11-18T03:40:15.223Z,7.6
2022-11-18T03:42:19.188Z,7.6
2022-11-18T03:44:23.159Z,7.7
2022-11-18T03:46:27.102Z,7.8
2022-11-18T03:48:31.077Z,7.8
2022-11-18T03:50:35.021Z,7.8
2022-11-18T03:52:39.012Z,7.8
2022-11-18T03:54:45.983Z,7.8
2022-11-18T03:56:49.944Z,7.8
2022-11-18T03:58:53.896Z,7.8
2022-11-18T04:00:57.862Z,7.8
2022-11-18T04:03:01.844Z,7.7
2022-11-18T04:05:05.808Z,7.8
2022-11-18T04:07:09.813Z,7.8
2022-11-18T04:09:17.234Z,7.8
2022-11-18T04:11:20.702Z,7.7
2022-11-18T04:13:24.686Z,7.7
2022-11-18T04:14:28.160Z,7.7
2022-11-18T04:16:32.132Z,7.7
2022-11-18T04:18:36.107Z,7.6
2022-11-18T04:20:40.089Z,7.7
2022-11-18T04:22:47.049Z,7.6
2022-11-18T04:24:51.009Z,7.7
2022-11-18T04:26:54.975Z,7.7
2022-11-18T04:28:58.937Z,7.7
2022-11-18T04:31:02.916Z,7.8
2022-11-18T04:33:06.882Z,7.7
2022-11-18T04:35:10.866Z,7.8
2022-11-18T04:37:17.826Z,7.8
2022-11-18T04:39:21.796Z,7.8
2022-11-18T04:41:25.751Z,7.8
2022-11-18T04:43:29.734Z,7.9
2022-11-18T04:45:41.413Z,7.8
2022-11-18T04:47:37.660Z,7.9
2022-11-18T04:49:41.632Z,7.8
2022-11-18T04:51:48.602Z,7.8
2022-11-18T04:53:52.562Z,7.9
2022-11-18T04:55:56.552Z,7.8
2022-11-18T04:58:00.602Z,7.9
2022-11-18T05:00:04.485Z,7.8
2022-11-18T05:02:08.467Z,7.8
2022-11-18T05:04:12.414Z,7.8
2022-11-18T05:06:19.418Z,7.8
2022-11-18T05:08:23.418Z,7.9
2022-11-18T05:10:27.379Z,7.8
2022-11-18T05:11:30.874Z,7.9
2022-11-18T05:13:34.845Z,7.8
2022-11-18T05:15:38.812Z,7.9
2022-11-18T05:17:42.786Z,7.9
2022-11-18T05:21:53.709Z,7.9
2022-11-18T05:26:02.637Z,7.8
2022-11-18T05:28:05.647Z,7.9
2022-11-18T05:32:13.575Z,7.8
2022-11-18T05:36:24.545Z,7.9
2022-11-18T05:38:28.527Z,7.8
2022-11-18T05:40:32.478Z,7.8
2022-11-18T05:42:36.438Z,8
2022-11-18T05:44:40.415Z,8
2022-11-18T05:46:44.396Z,7.9
2022-11-18T05:48:51.404Z,7.9
2022-11-18T05:52:59.324Z,8
2022-11-18T05:55:03.321Z,8
2022-11-18T05:57:07.255Z,8
2022-11-18T05:59:11.221Z,8.1
2022-11-18T06:01:15.196Z,8.1
2022-11-18T06:03:24.984Z,8.1
2022-11-18T06:05:26.160Z,8
2022-11-18T06:08:33.615Z,8
2022-11-18T06:12:41.556Z,8.1
2022-11-18T06:14:45.556Z,8.1
2022-11-18T06:16:52.531Z,8.1
2022-11-18T06:18:56.524Z,8
2022-11-18T06:21:00.468Z,8.1
2022-11-18T06:23:04.474Z,8
2022-11-18T06:25:08.440Z,8.1
2022-11-18T06:27:12.432Z,8
2022-11-18T06:31:23.366Z,7.9
2022-11-18T06:33:27.327Z,8
2022-11-18T06:35:31.327Z,7.9
2022-11-18T06:37:35.288Z,8
2022-11-18T06:39:39.272Z,7.9
2022-11-18T06:41:43.241Z,7.8
2022-11-18T06:43:47.212Z,7.8
2022-11-18T06:45:54.199Z,7.8
2022-11-18T06:47:58.157Z,7.7
2022-11-18T06:50:02.129Z,7.6
2022-11-18T06:56:14.036Z,7.7
2022-11-18T06:58:17.985Z,7.7
2022-11-18T07:00:26.990Z,7.8
2022-11-18T07:02:28.930Z,7.8
2022-11-18T07:04:32.889Z,7.9
2022-11-18T07:09:01.238Z,7.9
2022-11-18T07:11:05.184Z,7.9
2022-11-18T07:13:12.160Z,7.9
2022-11-18T07:19:24.074Z,8
2022-11-18T07:23:31.996Z,8.1
2022-11-18T07:25:37.412Z,8.1
2022-11-18T07:27:42.954Z,8.1
2022-11-18T07:29:46.948Z,8.1
2022-11-18T07:31:50.905Z,8.2
2022-11-18T07:33:54.882Z,8.2
2022-11-18T07:35:58.843Z,8.2
2022-11-18T07:38:02.824Z,8.3
2022-11-18T07:40:06.772Z,8.3
2022-11-18T07:42:13.756Z,8.3
2022-11-18T07:46:21.749Z,8.4
2022-11-18T07:48:25.705Z,8.4
2022-11-18T07:50:29.686Z,8.4
2022-11-18T07:56:44.651Z,8.6
2022-11-18T07:58:48.621Z,8.6
2022-11-18T08:00:52.599Z,8.6
2022-11-18T08:10:15.093Z,8.7
2022-11-18T08:12:19.059Z,8.7
2022-11-18T08:14:23.022Z,8.7
2022-11-18T08:20:34.992Z,8.7
2022-11-18T08:22:38.995Z,8.7
2022-11-18T08:24:45.996Z,8.7
2022-11-18T08:28:54.090Z,8.6
2022-11-18T08:33:01.943Z,8.6
2022-11-18T08:35:10.803Z,8.7
2022-11-18T08:37:09.918Z,8.7
2022-11-18T08:39:18.771Z,8.8
2022-11-18T08:41:22.458Z,8.8
2022-11-18T08:43:26.426Z,8.8
2022-11-18T08:45:30.429Z,8.9
2022-11-18T08:47:34.421Z,9.1
2022-11-18T08:49:38.425Z,9.3
2022-11-18T08:51:42.405Z,9.4
2022-11-18T08:53:49.401Z,9.3
2022-11-18T08:55:56.967Z,9.2
2022-11-18T08:57:57.391Z,9.3
2022-11-18T08:59:00.894Z,9.3
2022-11-18T09:01:04.913Z,9.3
2022-11-18T09:05:12.875Z,9.5
2022-11-18T09:07:20.073Z,9.8
2022-11-18T09:09:24.102Z,9.8
2022-11-18T09:11:27.902Z,10
2022-11-18T09:13:56.303Z,9.9
2022-11-18T09:15:35.906Z,10.1
2022-11-18T09:17:39.930Z,10.2
2022-11-18T09:19:48.049Z,10.3
2022-11-18T09:23:55.019Z,10.4
2022-11-18T09:25:59.024Z,10.4
2022-11-18T09:28:03.055Z,10.7
2022-11-18T09:30:07.090Z,10.8
2022-11-18T09:32:11.103Z,10.9
2022-11-18T09:34:15.464Z,11.1
2022-11-18T09:36:22.196Z,10.7
2022-11-18T09:44:38.329Z,10.5
2022-11-18T09:52:57.509Z,10.6
2022-11-18T09:55:01.587Z,10.4
2022-11-18T09:56:05.217Z,10.8
2022-11-18T09:58:09.134Z,11
2022-11-18T10:00:13.168Z,11.2
2022-11-18T10:02:17.311Z,10.9
2022-11-18T10:06:28.357Z,11.2
2022-11-18T10:08:32.402Z,11
2022-11-18T10:10:36.468Z,10.9
2022-11-18T10:16:48.610Z,10.9
2022-11-18T10:19:00.744Z,11
2022-11-18T10:20:59.737Z,11
2022-11-18T10:25:07.822Z,11.4
2022-11-18T10:27:11.889Z,11.6
2022-11-18T10:31:20.042Z,11.7
2022-11-18T10:33:27.081Z,12.2
2022-11-18T10:35:31.155Z,12.3
2022-11-18T10:38:05.712Z,12.6
2022-11-18T10:39:39.256Z,13.3
2022-11-18T10:41:43.342Z,13.9
2022-11-18T10:43:47.405Z,14.4
2022-11-18T10:45:51.473Z,14.9
2022-11-18T10:47:58.540Z,15.2
2022-11-18T10:50:02.629Z,15.8
2022-11-18T10:52:06.684Z,15
2022-11-18T10:54:31.290Z,14.3
2022-11-18T10:58:39.420Z,13.1
2022-11-18T11:06:58.806Z,11.3
2022-11-18T11:09:02.852Z,11.2
2022-11-18T11:11:06.931Z,11.2
2022-11-18T11:13:10.992Z,11.3
2022-11-18T11:15:18.071Z,11.5
2022-11-18T11:17:22.239Z,11.5
2022-11-18T11:21:30.313Z,11.4
2022-11-18T11:23:34.365Z,11.3
2022-11-18T11:29:49.614Z,11.6
2022-11-18T11:33:57.742Z,11.7
2022-11-18T11:36:01.795Z,11.8
2022-11-18T11:38:05.847Z,11.7
2022-11-18T11:40:09.912Z,12
2022-11-18T11:42:13.983Z,11.8
2022-11-18T11:44:21.064Z,11.6
2022-11-18T11:46:25.120Z,11.6
2022-11-18T11:51:36.783Z,11.2
2022-11-18T11:53:40.842Z,11.2
2022-11-18T11:55:44.912Z,11.2
2022-11-18T12:06:08.238Z,11.5
2022-11-18T12:08:12.291Z,11.2
2022-11-18T12:12:23.381Z,11
2022-11-18T12:14:27.456Z,10.9
2022-11-18T12:16:31.530Z,10.9
2022-11-18T12:18:35.583Z,10.9
2022-11-18T12:20:39.630Z,11
2022-11-18T12:22:43.685Z,11
2022-11-18T12:24:47.723Z,11
2022-11-18T12:26:54.822Z,10.9
2022-11-18T12:28:58.852Z,10.8
2022-11-18T12:31:02.918Z,10.7
2022-11-18T12:33:06.968Z,10.6
2022-11-18T12:35:11.022Z,10.7
2022-11-18T12:37:15.061Z,10.7
2022-11-18T12:39:19.447Z,10.7
2022-11-18T12:41:26.189Z,11
2022-11-18T12:43:30.245Z,12.4
2022-11-18T12:45:34.308Z,14.6
2022-11-18T12:46:42.657Z,15
2022-11-18T12:48:41.879Z,14.7
2022-11-18T12:50:46.006Z,13.7
2022-11-18T12:52:50.011Z,12.5
2022-11-18T12:54:57.077Z,11.6
2022-11-18T12:57:01.127Z,11.3
2022-11-18T12:59:05.182Z,10.9
2022-11-18T13:01:09.355Z,10.8
2022-11-18T13:03:13.291Z,10.7
2022-11-18T13:05:17.361Z,10.8
2022-11-18T13:15:40.604Z,10.6
2022-11-18T13:24:00.924Z,10.5
2022-11-18T13:26:03.938Z,10.5
2022-11-18T13:28:07.964Z,10.4
2022-11-18T13:30:12.049Z,10.4
2022-11-18T13:32:16.084Z,10.4
2022-11-18T13:34:20.149Z,10.3
2022-11-18T13:36:24.202Z,10.2
2022-11-18T13:38:31.266Z,10.1
2022-11-18T13:40:35.313Z,10.1
2022-11-18T13:42:39.336Z,10.1
2022-11-18T13:43:42.894Z,10.1
2022-11-18T13:45:46.957Z,10.1
2022-11-18T13:47:50.981Z,10.1
2022-11-18T13:49:55.023Z,10.1
2022-11-18T13:52:02.067Z,10.2
2022-11-18T13:54:06.116Z,10.2
2022-11-18T13:56:10.161Z,10.2
2022-11-18T13:58:14.204Z,10.2
2022-11-18T14:00:18.263Z,10.2
2022-11-18T14:02:22.312Z,10.2
2022-11-18T14:06:33.382Z,10.2
2022-11-18T14:08:37.444Z,10.2
2022-11-18T14:10:41.481Z,10.1
2022-11-18T14:12:45.509Z,10.2
2022-11-18T14:14:49.571Z,10.2
2022-11-18T14:21:04.685Z,10.1
2022-11-18T14:29:21.183Z,10.3
2022-11-18T14:33:28.916Z,10.2
2022-11-18T14:35:37.539Z,10.2
2022-11-18T14:37:41.537Z,10.2
2022-11-18T14:39:45.588Z,10.1
2022-11-18T14:42:03.998Z,10.1
2022-11-18T14:44:08.025Z,10.1
2022-11-18T14:46:12.083Z,10.1
2022-11-18T14:48:19.133Z,10
2022-11-18T14:50:23.183Z,10
2022-11-18T14:52:27.214Z,10
2022-11-18T14:56:35.271Z,9.9
2022-11-18T14:58:39.302Z,9.9
2022-11-18T15:00:43.410Z,9.9
2022-11-18T15:02:50.482Z,9.9
2022-11-18T15:04:54.429Z,9.9
2022-11-18T15:06:58.474Z,9.9
2022-11-18T15:09:02.497Z,9.8
2022-11-18T15:11:06.522Z,9.9
2022-11-18T15:13:10.564Z,9.8
2022-11-18T15:15:14.599Z,9.8
2022-11-18T15:17:21.652Z,9.8
2022-11-18T15:19:25.685Z,9.8
2022-11-18T15:21:29.681Z,9.8
2022-11-18T15:23:33.711Z,9.8
2022-11-18T15:25:37.749Z,9.8
2022-11-18T15:27:41.796Z,9.8
2022-11-18T15:29:45.815Z,9.7
2022-11-18T15:31:52.853Z,9.7
2022-11-18T15:33:58.892Z,9.7
2022-11-18T15:36:00.924Z,9.7
2022-11-18T15:37:04.470Z,9.7
2022-11-18T15:39:48.899Z,9.7
2022-11-18T15:41:12.502Z,9.7
2022-11-18T15:43:16.519Z,9.7
2022-11-18T15:45:23.535Z,9.5
2022-11-18T15:47:27.572Z,9.4
2022-11-18T15:49:31.681Z,9.3
2022-11-18T15:51:35.646Z,9.3
2022-11-18T15:53:39.670Z,9.2
2022-11-18T15:55:43.664Z,9.1
2022-11-18T15:57:47.704Z,8.9
2022-11-18T15:59:54.731Z,8.8
2022-11-18T16:01:58.762Z,8.8
2022-11-18T16:04:02.791Z,8.7
2022-11-18T16:10:14.836Z,8.6
2022-11-18T16:16:30.049Z,8.5
2022-11-18T16:18:39.322Z,8.4
2022-11-18T16:20:37.952Z,8.5
2022-11-18T16:22:41.943Z,8.4
2022-11-18T16:24:48.482Z,8.3
2022-11-18T16:26:49.993Z,8.3
2022-11-18T16:28:57.032Z,8.3
2022-11-18T16:33:05.049Z,8.3
2022-11-18T16:34:08.552Z,8.2
2022-11-18T16:36:12.564Z,8.1
2022-11-18T16:38:16.595Z,8
2022-11-18T16:40:20.625Z,8
2022-11-18T16:42:27.652Z,7.8
2022-11-18T16:44:31.641Z,7.8
2022-11-18T16:46:35.721Z,7.7
2022-11-18T16:50:43.651Z,7.6
2022-11-18T16:52:48.823Z,7.6
2022-11-18T16:59:02.653Z,7.4
2022-11-18T17:05:14.661Z,7.2
2022-11-18T17:09:22.841Z,7
2022-11-18T17:13:33.626Z,6.9
2022-11-18T17:15:37.605Z,6.9
2022-11-18T17:17:41.579Z,6.9
2022-11-18T17:19:45.549Z,6.8
2022-11-18T17:21:49.623Z,6.7
2022-11-18T17:23:53.493Z,6.7
2022-11-18T17:28:04.466Z,6.6
2022-11-18T17:30:08.416Z,6.6
2022-11-18T17:31:11.929Z,6.6
2022-11-18T17:33:15.884Z,6.5
2022-11-18T17:35:19.830Z,6.5
2022-11-18T17:37:23.787Z,6.6
2022-11-18T17:41:34.764Z,6.5
2022-11-18T17:43:38.693Z,6.4
2022-11-18T17:47:46.640Z,6.3
2022-11-18T17:55:14.062Z,6
2022-11-18T17:56:05.391Z,6.2
2022-11-18T18:00:13.285Z,6.2
2022-11-18T18:04:21.302Z,6.1
2022-11-18T18:08:52.260Z,6.2
2022-11-18T18:11:29.517Z,6.1
2022-11-18T18:12:39.941Z,6.1
2022-11-18T18:14:43.890Z,6
2022-11-18T18:16:47.860Z,6
2022-11-18T18:18:51.734Z,5.9
2022-11-18T18:20:55.713Z,5.8
2022-11-18T18:23:04.186Z,5.7
2022-11-18T18:25:06.572Z,5.6
2022-11-18T18:27:10.500Z,5.7
2022-11-18T18:29:34.392Z,5.5
2022-11-18T18:31:36.750Z,5.4
2022-11-18T18:33:40.598Z,5.4
2022-11-18T18:35:47.537Z,5.4
2022-11-18T18:37:51.473Z,5.4
2022-11-18T18:41:59.294Z,5.3
2022-11-18T18:44:03.217Z,5.3
2022-11-18T18:46:07.127Z,5.1
2022-11-18T18:56:33.347Z,4.8
2022-11-18T18:58:33.592Z,4.8
2022-11-18T19:00:37.506Z,4.8
2022-11-18T19:02:41.391Z,4.9
2022-11-18T19:04:48.342Z,4.8
2022-11-18T19:06:58.865Z,4.8
2022-11-18T19:08:56.136Z,4.8
2022-11-18T19:11:00.022Z,4.7
2022-11-18T19:13:03.894Z,4.7
2022-11-18T19:15:07.836Z,4.6
2022-11-18T19:17:12.644Z,4.5
2022-11-18T19:19:18.619Z,4.4
2022-11-18T19:21:22.502Z,4.4
2022-11-18T19:23:26.414Z,4.4
2022-11-18T19:24:48.827Z,4.4
2022-11-18T19:28:37.832Z,4.3
2022-11-18T19:30:41.729Z,4.3
2022-11-18T19:32:48.636Z,4.3
2022-11-18T19:34:52.506Z,4.3
2022-11-18T19:36:56.370Z,4.2
2022-11-18T19:39:00.248Z,4.2
2022-11-18T19:41:04.133Z,4.2
2022-11-18T19:43:08.027Z,4.3
2022-11-18T19:45:11.902Z,4.2
2022-11-18T19:47:18.816Z,4.2
2022-11-18T19:49:22.906Z,4.1
2022-11-18T19:51:26.536Z,4.1
2022-11-18T19:53:30.401Z,4.1
2022-11-18T19:55:34.300Z,4.1
2022-11-18T19:57:38.164Z,4.2
2022-11-18T20:01:49.025Z,4.1
2022-11-18T20:03:52.758Z,4.1
2022-11-18T20:05:56.772Z,4
2022-11-18T20:08:00.591Z,4
2022-11-18T20:10:04.440Z,4
2022-11-18T20:14:12.142Z,4
2022-11-18T20:16:19.043Z,4
2022-11-18T20:18:22.884Z,4
2022-11-18T20:20:26.751Z,4
2022-11-18T20:21:30.294Z,4
2022-11-18T20:25:38.112Z,4
2022-11-18T20:27:41.971Z,3.8
2022-11-18T20:29:48.845Z,3.7
2022-11-18T20:31:54.268Z,3.7
2022-11-18T20:33:58.094Z,3.7
2022-11-18T20:36:01.961Z,3.6
2022-11-18T20:38:05.802Z,3.6
2022-11-18T20:40:10.701Z,3.6
2022-11-18T20:42:13.480Z,3.5
2022-11-18T20:44:20.472Z,3.5
2022-11-18T20:48:28.174Z,3.5
2022-11-18T20:50:32.010Z,3.5
2022-11-18T20:52:35.863Z,3.5
2022-11-18T20:54:39.696Z,3.4
2022-11-18T20:56:43.525Z,3.4
2022-11-18T20:58:50.408Z,3.4
2022-11-18T21:00:58.086Z,3.4
2022-11-18T21:02:58.237Z,3.4
2022-11-18T21:05:02.140Z,3.4
2022-11-18T21:07:05.952Z,3.3
2022-11-18T21:13:32.815Z,3.3
2022-11-18T21:18:31.562Z,3.3
2022-11-18T21:21:04.416Z,3.3
2022-11-18T21:22:39.255Z,3.3
2022-11-18T21:26:49.949Z,3.3
2022-11-18T21:28:53.817Z,3.4
2022-11-18T21:30:57.643Z,3.3
2022-11-18T21:33:01.561Z,3.3
2022-11-18T21:35:05.500Z,3.3
2022-11-18T21:37:09.345Z,3.3
2022-11-18T21:41:20.230Z,3.3
2022-11-18T21:43:50.165Z,3.2
2022-11-18T21:45:27.880Z,3.2
2022-11-18T21:47:31.780Z,3.2
2022-11-18T21:49:35.559Z,3.2
2022-11-18T21:51:39.401Z,3.3
2022-11-18T21:53:43.304Z,3.2
2022-11-18T21:55:50.180Z,3.2
2022-11-18T21:57:54.072Z,3.2
2022-11-18T21:59:57.963Z,3.2
2022-11-18T22:02:01.835Z,3.2
2022-11-18T22:04:05.716Z,3.2
2022-11-18T22:06:09.505Z,3.3
2022-11-18T22:08:13.416Z,3.2
2022-11-18T22:10:20.248Z,3.3
2022-11-18T22:12:24.077Z,3.2
2022-11-18T22:14:27.964Z,3.2
2022-11-18T22:16:55.457Z,3.2
2022-11-18T22:18:58.812Z,3.2
2022-11-18T22:20:59.992Z,3.2
2022-11-18T22:25:10.791Z,3.2
2022-11-18T22:27:14.703Z,3.3
2022-11-18T22:29:18.935Z,3.2
2022-11-18T22:31:22.452Z,3.1
2022-11-18T22:33:20.301Z,3.1
2022-11-18T22:41:38.708Z,3.1
2022-11-18T22:43:42.552Z,3.1
2022-11-18T22:45:46.385Z,3.2
2022-11-18T22:47:50.291Z,3.1
2022-11-18T22:49:56.482Z,3.1
2022-11-18T22:52:01.081Z,3.1
2022-11-18T22:54:36.550Z,3.1
2022-11-18T22:56:08.797Z,3.1
2022-11-18T22:58:12.669Z,3.1
2022-11-18T23:00:16.559Z,3.1
2022-11-18T23:02:20.493Z,3.2
2022-11-18T23:04:24.548Z,3.1
2022-11-18T23:06:31.117Z,3.2
2022-11-18T23:09:24.461Z,3.1
2022-11-18T23:11:42.201Z,3.1
2022-11-18T23:13:46.029Z,3.1
2022-11-18T23:15:49.840Z,3.1
2022-11-18T23:17:53.622Z,3.1
2022-11-18T23:20:00.537Z,3.1
2022-11-18T23:22:04.289Z,3.1
2022-11-18T23:24:08.241Z,3.1
2022-11-18T23:26:12.163Z,3.1
2022-11-18T23:28:16.002Z,3.1
2022-11-18T23:30:19.806Z,3.1
2022-11-18T23:32:23.583Z,3
2022-11-18T23:34:30.424Z,3
2022-11-18T23:36:34.237Z,3
2022-11-18T23:38:38.073Z,3
2022-11-18T23:40:41.887Z,3
2022-11-18T23:42:45.832Z,3
2022-11-18T23:44:49.727Z,3
2022-11-18T23:46:53.628Z,3
2022-11-18T23:49:00.580Z,3
2022-11-18T23:51:04.409Z,3
2022-11-18T23:53:08.218Z,3.1
2022-11-18T23:55:12.034Z,3
2022-11-18T23:57:15.848Z,3
2022-11-18T23:59:20.023Z,2.9
